sensor_id;sensor_type;location;lat;lon;timestamp;temperature;humidity
52285;DHT22;38238;53.304;6.606;2022-07-03T00:00:28;18.60;99.90
52285;DHT22;38238;53.304;6.606;2022-07-03T00:02:53;18.60;99.90
52285;DHT22;38238;53.304;6.606;2022-07-03T00:05:19;18.60;99.90
52285;DHT22;38238;53.304;6.606;2022-07-03T00:07:45;18.60;99.90
52285;DHT22;38238;53.304;6.606;2022-07-03T00:10:11;18.60;99.90
52285;DHT22;38238;53.304;6.606;2022-07-03T00:12:37;18.60;99.90
52285;DHT22;38238;53.304;6.606;2022-07-03T00:15:03;18.60;99.90
52285;DHT22;38238;53.304;6.606;2022-07-03T00:17:29;18.60;99.90
52285;DHT22;38238;53.304;6.606;2022-07-03T00:19:55;18.60;99.90
52285;DHT22;38238;53.304;6.606;2022-07-03T00:22:21;18.50;99.90
52285;DHT22;38238;53.304;6.606;2022-07-03T00:25:03;18.40;99.90
52285;DHT22;38238;53.304;6.606;2022-07-03T00:27:31;18.40;99.90
52285;DHT22;38238;53.304;6.606;2022-07-03T00:30:00;18.30;99.90
52285;DHT22;38238;53.304;6.606;2022-07-03T00:32:27;18.30;99.90
52285;DHT22;38238;53.304;6.606;2022-07-03T00:34:55;18.20;99.90
52285;DHT22;38238;53.304;6.606;2022-07-03T00:37:22;18.10;99.90
52285;DHT22;38238;53.304;6.606;2022-07-03T00:39:48;18.10;99.90
52285;DHT22;38238;53.304;6.606;2022-07-03T00:42:15;18.10;99.90
52285;DHT22;38238;53.304;6.606;2022-07-03T00:44:52;18.00;99.90
52285;DHT22;38238;53.304;6.606;2022-07-03T00:47:20;18.00;99.90
52285;DHT22;38238;53.304;6.606;2022-07-03T00:49:49;18.00;99.90
52285;DHT22;38238;53.304;6.606;2022-07-03T00:52:18;18.00;99.90
52285;DHT22;38238;53.304;6.606;2022-07-03T00:54:53;17.90;99.90
52285;DHT22;38238;53.304;6.606;2022-07-03T00:57:20;17.90;99.90
52285;DHT22;38238;53.304;6.606;2022-07-03T00:59:46;17.80;99.90
52285;DHT22;38238;53.304;6.606;2022-07-03T01:08:20;17.80;99.90
52285;DHT22;38238;53.304;6.606;2022-07-03T01:16:25;17.70;99.90
52285;DHT22;38238;53.304;6.606;2022-07-03T01:27:05;17.50;99.90
52285;DHT22;38238;53.304;6.606;2022-07-03T01:29:43;17.50;99.90
52285;DHT22;38238;53.304;6.606;2022-07-03T01:32:14;17.50;99.90
52285;DHT22;38238;53.304;6.606;2022-07-03T01:34:44;17.50;99.90
52285;DHT22;38238;53.304;6.606;2022-07-03T01:37:15;17.50;99.90
52285;DHT22;38238;53.304;6.606;2022-07-03T01:39:44;17.50;99.90
52285;DHT22;38238;53.304;6.606;2022-07-03T01:42:13;17.40;99.90
52285;DHT22;38238;53.304;6.606;2022-07-03T01:44:39;17.40;99.90
52285;DHT22;38238;53.304;6.606;2022-07-03T01:47:06;17.30;99.90
52285;DHT22;38238;53.304;6.606;2022-07-03T01:49:32;17.30;99.90
52285;DHT22;38238;53.304;6.606;2022-07-03T01:52:02;17.30;99.90
52285;DHT22;38238;53.304;6.606;2022-07-03T01:54:28;17.30;99.90
52285;DHT22;38238;53.304;6.606;2022-07-03T01:56:55;17.30;99.90
52285;DHT22;38238;53.304;6.606;2022-07-03T01:59:21;17.20;99.90
52285;DHT22;38238;53.304;6.606;2022-07-03T02:04:51;17.20;99.90
52285;DHT22;38238;53.304;6.606;2022-07-03T02:10:05;17.10;99.90
52285;DHT22;38238;53.304;6.606;2022-07-03T02:12:49;17.10;99.90
52285;DHT22;38238;53.304;6.606;2022-07-03T02:15:25;17.00;99.90
52285;DHT22;38238;53.304;6.606;2022-07-03T02:17:54;17.00;99.90
52285;DHT22;38238;53.304;6.606;2022-07-03T02:20:22;16.90;99.90
52285;DHT22;38238;53.304;6.606;2022-07-03T02:22:59;16.90;99.90
52285;DHT22;38238;53.304;6.606;2022-07-03T02:25:35;16.90;99.90
52285;DHT22;38238;53.304;6.606;2022-07-03T02:28:11;16.90;99.90
52285;DHT22;38238;53.304;6.606;2022-07-03T02:30:43;16.90;99.90
52285;DHT22;38238;53.304;6.606;2022-07-03T02:33:21;16.90;99.90
52285;DHT22;38238;53.304;6.606;2022-07-03T02:35:53;16.80;99.90
52285;DHT22;38238;53.304;6.606;2022-07-03T02:38:20;16.60;99.90
52285;DHT22;38238;53.304;6.606;2022-07-03T02:41:02;16.60;99.90
52285;DHT22;38238;53.304;6.606;2022-07-03T02:52:32;16.40;99.90
52285;DHT22;38238;53.304;6.606;2022-07-03T02:57:38;16.40;99.90
52285;DHT22;38238;53.304;6.606;2022-07-03T03:00:06;16.40;99.90
52285;DHT22;38238;53.304;6.606;2022-07-03T03:02:52;16.30;99.90
52285;DHT22;38238;53.304;6.606;2022-07-03T03:08:15;16.40;99.90
52285;DHT22;38238;53.304;6.606;2022-07-03T03:10:43;16.30;99.90
52285;DHT22;38238;53.304;6.606;2022-07-03T03:13:11;16.30;99.90
52285;DHT22;38238;53.304;6.606;2022-07-03T03:15:38;16.30;99.90
52285;DHT22;38238;53.304;6.606;2022-07-03T03:18:11;16.30;99.90
52285;DHT22;38238;53.304;6.606;2022-07-03T03:20:38;16.20;99.90
52285;DHT22;38238;53.304;6.606;2022-07-03T03:25:37;16.20;99.90
52285;DHT22;38238;53.304;6.606;2022-07-03T03:28:03;16.20;99.90
52285;DHT22;38238;53.304;6.606;2022-07-03T03:30:29;16.20;99.90
52285;DHT22;38238;53.304;6.606;2022-07-03T03:32:55;16.20;99.90
52285;DHT22;38238;53.304;6.606;2022-07-03T03:35:21;16.10;99.90
52285;DHT22;38238;53.304;6.606;2022-07-03T03:37:46;16.20;99.90
52285;DHT22;38238;53.304;6.606;2022-07-03T03:40:16;16.20;99.90
52285;DHT22;38238;53.304;6.606;2022-07-03T03:42:42;16.20;99.90
52285;DHT22;38238;53.304;6.606;2022-07-03T03:45:08;16.30;99.90
52285;DHT22;38238;53.304;6.606;2022-07-03T03:47:34;16.50;99.90
52285;DHT22;38238;53.304;6.606;2022-07-03T03:50:01;16.80;99.90
52285;DHT22;38238;53.304;6.606;2022-07-03T03:52:28;17.20;99.90
52285;DHT22;38238;53.304;6.606;2022-07-03T03:54:55;17.60;99.90
52285;DHT22;38238;53.304;6.606;2022-07-03T03:57:22;17.90;99.90
52285;DHT22;38238;53.304;6.606;2022-07-03T03:59:49;17.70;99.90
52285;DHT22;38238;53.304;6.606;2022-07-03T04:02:15;17.40;99.90
52285;DHT22;38238;53.304;6.606;2022-07-03T04:04:41;17.20;99.90
52285;DHT22;38238;53.304;6.606;2022-07-03T04:07:07;17.00;99.90
52285;DHT22;38238;53.304;6.606;2022-07-03T04:09:33;16.90;99.90
52285;DHT22;38238;53.304;6.606;2022-07-03T04:11:59;16.80;99.90
52285;DHT22;38238;53.304;6.606;2022-07-03T04:14:24;16.70;99.90
52285;DHT22;38238;53.304;6.606;2022-07-03T04:16:50;16.70;99.90
52285;DHT22;38238;53.304;6.606;2022-07-03T04:19:16;16.60;99.90
52285;DHT22;38238;53.304;6.606;2022-07-03T04:21:42;16.60;99.90
52285;DHT22;38238;53.304;6.606;2022-07-03T04:24:07;16.60;99.90
52285;DHT22;38238;53.304;6.606;2022-07-03T04:26:33;16.60;99.90
52285;DHT22;38238;53.304;6.606;2022-07-03T04:28:59;16.50;99.90
52285;DHT22;38238;53.304;6.606;2022-07-03T04:31:25;16.50;99.90
52285;DHT22;38238;53.304;6.606;2022-07-03T04:33:50;16.50;99.90
52285;DHT22;38238;53.304;6.606;2022-07-03T04:36:16;16.50;99.90
52285;DHT22;38238;53.304;6.606;2022-07-03T04:38:43;16.60;99.90
52285;DHT22;38238;53.304;6.606;2022-07-03T04:41:09;16.60;99.90
52285;DHT22;38238;53.304;6.606;2022-07-03T04:43:35;16.60;99.90
52285;DHT22;38238;53.304;6.606;2022-07-03T04:46:02;16.70;99.90
52285;DHT22;38238;53.304;6.606;2022-07-03T04:48:31;16.70;99.90
52285;DHT22;38238;53.304;6.606;2022-07-03T04:50:57;16.80;99.90
52285;DHT22;38238;53.304;6.606;2022-07-03T04:53:23;16.90;99.90
52285;DHT22;38238;53.304;6.606;2022-07-03T04:55:49;17.00;99.90
52285;DHT22;38238;53.304;6.606;2022-07-03T04:58:15;17.00;99.90
52285;DHT22;38238;53.304;6.606;2022-07-03T05:00:43;17.00;99.90
52285;DHT22;38238;53.304;6.606;2022-07-03T05:03:09;17.00;99.90
52285;DHT22;38238;53.304;6.606;2022-07-03T05:05:34;17.10;99.90
52285;DHT22;38238;53.304;6.606;2022-07-03T05:08:00;17.10;99.90
52285;DHT22;38238;53.304;6.606;2022-07-03T05:10:26;17.10;99.90
52285;DHT22;38238;53.304;6.606;2022-07-03T05:12:52;17.20;99.90
52285;DHT22;38238;53.304;6.606;2022-07-03T05:15:18;17.20;99.90
52285;DHT22;38238;53.304;6.606;2022-07-03T05:17:44;17.20;99.90
52285;DHT22;38238;53.304;6.606;2022-07-03T05:20:10;17.30;99.90
52285;DHT22;38238;53.304;6.606;2022-07-03T05:22:57;17.30;99.90
52285;DHT22;38238;53.304;6.606;2022-07-03T05:25:23;17.40;99.90
52285;DHT22;38238;53.304;6.606;2022-07-03T05:27:49;17.50;99.90
52285;DHT22;38238;53.304;6.606;2022-07-03T05:30:16;17.60;99.90
52285;DHT22;38238;53.304;6.606;2022-07-03T05:32:42;17.70;99.90
52285;DHT22;38238;53.304;6.606;2022-07-03T05:35:08;17.70;99.90
52285;DHT22;38238;53.304;6.606;2022-07-03T05:37:34;17.70;99.90
52285;DHT22;38238;53.304;6.606;2022-07-03T05:40:00;17.80;99.90
52285;DHT22;38238;53.304;6.606;2022-07-03T05:42:26;17.80;99.90
52285;DHT22;38238;53.304;6.606;2022-07-03T05:44:52;18.00;99.90
52285;DHT22;38238;53.304;6.606;2022-07-03T05:47:17;18.10;99.90
52285;DHT22;38238;53.304;6.606;2022-07-03T05:49:43;18.20;99.90
52285;DHT22;38238;53.304;6.606;2022-07-03T05:52:09;18.40;99.90
52285;DHT22;38238;53.304;6.606;2022-07-03T05:54:34;18.50;99.90
52285;DHT22;38238;53.304;6.606;2022-07-03T05:57:00;18.50;99.90
52285;DHT22;38238;53.304;6.606;2022-07-03T05:59:26;18.60;99.90
52285;DHT22;38238;53.304;6.606;2022-07-03T06:01:51;18.60;99.90
52285;DHT22;38238;53.304;6.606;2022-07-03T06:04:17;18.60;99.90
52285;DHT22;38238;53.304;6.606;2022-07-03T06:06:43;18.70;99.90
52285;DHT22;38238;53.304;6.606;2022-07-03T06:09:08;18.70;99.90
52285;DHT22;38238;53.304;6.606;2022-07-03T06:11:34;18.70;99.90
52285;DHT22;38238;53.304;6.606;2022-07-03T06:14:00;18.80;99.90
52285;DHT22;38238;53.304;6.606;2022-07-03T06:16:25;18.80;99.90
52285;DHT22;38238;53.304;6.606;2022-07-03T06:18:51;18.90;99.90
52285;DHT22;38238;53.304;6.606;2022-07-03T06:21:17;18.90;99.90
52285;DHT22;38238;53.304;6.606;2022-07-03T06:23:43;19.00;99.90
52285;DHT22;38238;53.304;6.606;2022-07-03T06:26:08;19.00;99.90
52285;DHT22;38238;53.304;6.606;2022-07-03T06:28:34;19.10;99.90
52285;DHT22;38238;53.304;6.606;2022-07-03T06:31:00;19.10;99.90
52285;DHT22;38238;53.304;6.606;2022-07-03T06:33:25;19.10;99.90
52285;DHT22;38238;53.304;6.606;2022-07-03T06:35:51;19.10;99.90
52285;DHT22;38238;53.304;6.606;2022-07-03T06:38:17;19.20;99.90
52285;DHT22;38238;53.304;6.606;2022-07-03T06:40:42;19.20;99.90
52285;DHT22;38238;53.304;6.606;2022-07-03T06:43:08;19.20;99.90
52285;DHT22;38238;53.304;6.606;2022-07-03T06:45:34;19.30;99.90
52285;DHT22;38238;53.304;6.606;2022-07-03T06:47:59;19.30;99.90
52285;DHT22;38238;53.304;6.606;2022-07-03T06:50:25;19.30;99.90
52285;DHT22;38238;53.304;6.606;2022-07-03T06:52:51;19.40;99.90
52285;DHT22;38238;53.304;6.606;2022-07-03T06:55:17;19.50;99.90
52285;DHT22;38238;53.304;6.606;2022-07-03T06:57:42;19.60;99.90
52285;DHT22;38238;53.304;6.606;2022-07-03T07:00:08;19.70;99.90
52285;DHT22;38238;53.304;6.606;2022-07-03T07:02:34;19.70;99.90
52285;DHT22;38238;53.304;6.606;2022-07-03T07:05:00;19.60;99.90
52285;DHT22;38238;53.304;6.606;2022-07-03T07:07:26;19.60;99.90
52285;DHT22;38238;53.304;6.606;2022-07-03T07:09:51;19.60;99.90
52285;DHT22;38238;53.304;6.606;2022-07-03T07:12:17;19.60;99.90
52285;DHT22;38238;53.304;6.606;2022-07-03T07:14:43;19.50;99.90
52285;DHT22;38238;53.304;6.606;2022-07-03T07:17:09;19.50;99.90
52285;DHT22;38238;53.304;6.606;2022-07-03T07:19:35;19.50;99.90
52285;DHT22;38238;53.304;6.606;2022-07-03T07:22:01;19.40;99.90
52285;DHT22;38238;53.304;6.606;2022-07-03T07:24:29;19.30;99.90
52285;DHT22;38238;53.304;6.606;2022-07-03T07:26:56;19.30;99.90
52285;DHT22;38238;53.304;6.606;2022-07-03T07:29:22;19.30;99.90
52285;DHT22;38238;53.304;6.606;2022-07-03T07:31:47;19.40;99.90
52285;DHT22;38238;53.304;6.606;2022-07-03T07:34:13;19.50;99.90
52285;DHT22;38238;53.304;6.606;2022-07-03T07:36:39;19.70;99.90
52285;DHT22;38238;53.304;6.606;2022-07-03T07:39:05;19.80;99.90
52285;DHT22;38238;53.304;6.606;2022-07-03T07:41:31;19.80;99.90
52285;DHT22;38238;53.304;6.606;2022-07-03T07:43:57;19.80;99.90
52285;DHT22;38238;53.304;6.606;2022-07-03T07:46:23;19.70;99.90
52285;DHT22;38238;53.304;6.606;2022-07-03T07:48:49;19.70;99.90
52285;DHT22;38238;53.304;6.606;2022-07-03T07:51:14;19.80;99.90
52285;DHT22;38238;53.304;6.606;2022-07-03T07:53:40;19.80;99.90
52285;DHT22;38238;53.304;6.606;2022-07-03T07:56:06;19.90;99.90
52285;DHT22;38238;53.304;6.606;2022-07-03T07:58:31;20.00;99.90
52285;DHT22;38238;53.304;6.606;2022-07-03T08:00:57;20.00;99.90
52285;DHT22;38238;53.304;6.606;2022-07-03T08:03:41;20.10;99.90
52285;DHT22;38238;53.304;6.606;2022-07-03T08:06:25;20.20;99.90
52285;DHT22;38238;53.304;6.606;2022-07-03T08:08:51;20.30;99.90
52285;DHT22;38238;53.304;6.606;2022-07-03T08:11:17;20.40;99.90
52285;DHT22;38238;53.304;6.606;2022-07-03T08:13:42;20.50;99.90
52285;DHT22;38238;53.304;6.606;2022-07-03T08:16:09;20.70;99.90
52285;DHT22;38238;53.304;6.606;2022-07-03T08:18:35;20.80;99.90
52285;DHT22;38238;53.304;6.606;2022-07-03T08:21:00;20.90;99.90
52285;DHT22;38238;53.304;6.606;2022-07-03T08:23:26;21.00;99.90
52285;DHT22;38238;53.304;6.606;2022-07-03T08:25:52;21.30;99.90
52285;DHT22;38238;53.304;6.606;2022-07-03T08:28:18;22.00;99.90
52285;DHT22;38238;53.304;6.606;2022-07-03T08:30:45;22.90;99.90
52285;DHT22;38238;53.304;6.606;2022-07-03T08:33:10;23.60;99.60
52285;DHT22;38238;53.304;6.606;2022-07-03T08:35:36;24.20;98.70
52285;DHT22;38238;53.304;6.606;2022-07-03T08:38:02;24.60;98.00
52285;DHT22;38238;53.304;6.606;2022-07-03T08:40:27;24.90;97.50
52285;DHT22;38238;53.304;6.606;2022-07-03T08:42:56;25.30;97.30
52285;DHT22;38238;53.304;6.606;2022-07-03T08:45:22;25.60;96.90
52285;DHT22;38238;53.304;6.606;2022-07-03T08:47:50;25.90;96.50
52285;DHT22;38238;53.304;6.606;2022-07-03T08:50:18;26.10;96.10
52285;DHT22;38238;53.304;6.606;2022-07-03T08:52:45;26.20;96.00
52285;DHT22;38238;53.304;6.606;2022-07-03T08:55:12;26.30;95.90
52285;DHT22;38238;53.304;6.606;2022-07-03T08:57:43;26.20;95.60
52285;DHT22;38238;53.304;6.606;2022-07-03T09:00:14;26.30;95.40
52285;DHT22;38238;53.304;6.606;2022-07-03T09:02:43;26.50;95.10
52285;DHT22;38238;53.304;6.606;2022-07-03T09:05:14;26.60;94.90
52285;DHT22;38238;53.304;6.606;2022-07-03T09:07:42;26.70;94.80
52285;DHT22;38238;53.304;6.606;2022-07-03T09:10:10;26.60;94.40
52285;DHT22;38238;53.304;6.606;2022-07-03T09:12:37;26.70;94.40
52285;DHT22;38238;53.304;6.606;2022-07-03T09:15:04;26.70;93.70
52285;DHT22;38238;53.304;6.606;2022-07-03T09:17:31;26.70;94.20
52285;DHT22;38238;53.304;6.606;2022-07-03T09:19:58;26.90;93.60
52285;DHT22;38238;53.304;6.606;2022-07-03T09:22:29;26.80;93.00
52285;DHT22;38238;53.304;6.606;2022-07-03T09:27:32;26.50;92.90
52285;DHT22;38238;53.304;6.606;2022-07-03T09:35:23;26.50;92.40
52285;DHT22;38238;53.304;6.606;2022-07-03T09:38:22;26.10;92.30
52285;DHT22;38238;53.304;6.606;2022-07-03T09:40:54;25.90;92.50
52285;DHT22;38238;53.304;6.606;2022-07-03T09:43:28;25.50;92.50
52285;DHT22;38238;53.304;6.606;2022-07-03T09:48:31;25.30;92.40
52285;DHT22;38238;53.304;6.606;2022-07-03T09:56:09;25.80;92.60
52285;DHT22;38238;53.304;6.606;2022-07-03T09:58:35;25.90;92.00
52285;DHT22;38238;53.304;6.606;2022-07-03T10:01:20;26.00;91.80
52285;DHT22;38238;53.304;6.606;2022-07-03T10:03:49;26.10;91.60
52285;DHT22;38238;53.304;6.606;2022-07-03T10:06:14;26.00;91.70
52285;DHT22;38238;53.304;6.606;2022-07-03T10:08:41;25.90;91.80
52285;DHT22;38238;53.304;6.606;2022-07-03T10:11:08;26.00;91.80
52285;DHT22;38238;53.304;6.606;2022-07-03T10:13:37;26.20;91.60
52285;DHT22;38238;53.304;6.606;2022-07-03T10:16:06;26.30;91.20
52285;DHT22;38238;53.304;6.606;2022-07-03T10:18:35;26.40;91.40
52285;DHT22;38238;53.304;6.606;2022-07-03T10:21:06;26.50;91.50
52285;DHT22;38238;53.304;6.606;2022-07-03T10:23:32;26.60;91.60
52285;DHT22;38238;53.304;6.606;2022-07-03T10:25:58;26.60;91.40
52285;DHT22;38238;53.304;6.606;2022-07-03T10:28:24;26.70;91.20
52285;DHT22;38238;53.304;6.606;2022-07-03T10:30:50;26.70;91.40
52285;DHT22;38238;53.304;6.606;2022-07-03T10:33:17;26.70;91.00
52285;DHT22;38238;53.304;6.606;2022-07-03T10:41:05;26.60;91.10
52285;DHT22;38238;53.304;6.606;2022-07-03T10:43:52;26.70;91.00
52285;DHT22;38238;53.304;6.606;2022-07-03T10:46:37;26.80;90.90
52285;DHT22;38238;53.304;6.606;2022-07-03T10:49:10;26.90;90.50
52285;DHT22;38238;53.304;6.606;2022-07-03T10:54:15;27.20;90.70
52285;DHT22;38238;53.304;6.606;2022-07-03T11:07:34;27.10;89.00
52285;DHT22;38238;53.304;6.606;2022-07-03T11:26:00;26.80;87.70
52285;DHT22;38238;53.304;6.606;2022-07-03T11:31:18;26.80;88.50
52285;DHT22;38238;53.304;6.606;2022-07-03T11:41:17;25.00;91.90
52285;DHT22;38238;53.304;6.606;2022-07-03T11:43:50;24.40;92.90
52285;DHT22;38238;53.304;6.606;2022-07-03T11:46:19;24.10;93.30
52285;DHT22;38238;53.304;6.606;2022-07-03T11:48:45;24.10;93.50
52285;DHT22;38238;53.304;6.606;2022-07-03T11:51:11;24.20;93.50
52285;DHT22;38238;53.304;6.606;2022-07-03T11:53:39;24.40;94.00
52285;DHT22;38238;53.304;6.606;2022-07-03T11:56:07;24.50;94.10
52285;DHT22;38238;53.304;6.606;2022-07-03T11:58:50;24.60;94.00
52285;DHT22;38238;53.304;6.606;2022-07-03T12:06:40;24.20;94.10
52285;DHT22;38238;53.304;6.606;2022-07-03T12:09:26;24.10;94.50
52285;DHT22;38238;53.304;6.606;2022-07-03T12:14:51;24.80;94.60
52285;DHT22;38238;53.304;6.606;2022-07-03T12:17:22;25.10;94.20
52285;DHT22;38238;53.304;6.606;2022-07-03T12:20:00;25.00;94.00
52285;DHT22;38238;53.304;6.606;2022-07-03T12:22:32;24.70;93.70
52285;DHT22;38238;53.304;6.606;2022-07-03T12:25:09;24.30;93.70
52285;DHT22;38238;53.304;6.606;2022-07-03T12:27:38;24.00;94.30
52285;DHT22;38238;53.304;6.606;2022-07-03T12:30:05;23.90;94.50
52285;DHT22;38238;53.304;6.606;2022-07-03T12:32:32;24.00;94.70
52285;DHT22;38238;53.304;6.606;2022-07-03T12:34:58;23.80;94.70
52285;DHT22;38238;53.304;6.606;2022-07-03T12:37:37;23.80;95.10
52285;DHT22;38238;53.304;6.606;2022-07-03T12:40:13;23.80;95.50
52285;DHT22;38238;53.304;6.606;2022-07-03T12:42:44;23.50;95.60
52285;DHT22;38238;53.304;6.606;2022-07-03T12:45:12;23.30;95.90
52285;DHT22;38238;53.304;6.606;2022-07-03T12:47:38;22.90;96.00
52285;DHT22;38238;53.304;6.606;2022-07-03T12:50:06;22.60;96.40
52285;DHT22;38238;53.304;6.606;2022-07-03T12:52:34;22.10;96.60
52285;DHT22;38238;53.304;6.606;2022-07-03T12:55:01;21.80;97.00
52285;DHT22;38238;53.304;6.606;2022-07-03T12:57:27;21.60;97.30
52285;DHT22;38238;53.304;6.606;2022-07-03T13:00:16;21.60;97.70
52285;DHT22;38238;53.304;6.606;2022-07-03T13:02:45;21.70;97.80
52285;DHT22;38238;53.304;6.606;2022-07-03T13:05:21;21.70;97.70
52285;DHT22;38238;53.304;6.606;2022-07-03T13:07:54;21.70;97.60
52285;DHT22;38238;53.304;6.606;2022-07-03T13:10:21;21.80;97.80
52285;DHT22;38238;53.304;6.606;2022-07-03T13:12:55;21.90;97.80
52285;DHT22;38238;53.304;6.606;2022-07-03T13:15:29;22.10;98.00
52285;DHT22;38238;53.304;6.606;2022-07-03T13:20:24;22.50;97.40
52285;DHT22;38238;53.304;6.606;2022-07-03T13:22:52;22.70;97.40
52285;DHT22;38238;53.304;6.606;2022-07-03T13:25:18;22.80;97.30
52285;DHT22;38238;53.304;6.606;2022-07-03T13:27:44;22.80;97.20
52285;DHT22;38238;53.304;6.606;2022-07-03T13:30:12;22.90;97.20
52285;DHT22;38238;53.304;6.606;2022-07-03T13:32:38;23.10;97.10
52285;DHT22;38238;53.304;6.606;2022-07-03T13:35:05;23.20;97.00
52285;DHT22;38238;53.304;6.606;2022-07-03T13:37:31;23.30;96.70
52285;DHT22;38238;53.304;6.606;2022-07-03T13:39:56;23.00;96.20
52285;DHT22;38238;53.304;6.606;2022-07-03T13:42:22;22.50;96.40
52285;DHT22;38238;53.304;6.606;2022-07-03T13:44:48;22.30;96.90
52285;DHT22;38238;53.304;6.606;2022-07-03T13:47:16;22.10;97.20
52285;DHT22;38238;53.304;6.606;2022-07-03T13:49:41;22.00;97.30
52285;DHT22;38238;53.304;6.606;2022-07-03T13:52:09;22.00;97.40
52285;DHT22;38238;53.304;6.606;2022-07-03T13:54:35;22.00;97.70
52285;DHT22;38238;53.304;6.606;2022-07-03T13:57:02;22.10;97.40
52285;DHT22;38238;53.304;6.606;2022-07-03T13:59:28;22.00;97.30
52285;DHT22;38238;53.304;6.606;2022-07-03T14:01:59;21.80;97.50
52285;DHT22;38238;53.304;6.606;2022-07-03T14:04:26;21.40;97.70
52285;DHT22;38238;53.304;6.606;2022-07-03T14:06:53;21.10;98.20
52285;DHT22;38238;53.304;6.606;2022-07-03T14:09:18;20.80;98.50
52285;DHT22;38238;53.304;6.606;2022-07-03T14:11:44;20.50;99.00
52285;DHT22;38238;53.304;6.606;2022-07-03T14:14:10;20.30;99.60
52285;DHT22;38238;53.304;6.606;2022-07-03T14:16:36;20.10;99.90
52285;DHT22;38238;53.304;6.606;2022-07-03T14:19:01;20.00;99.90
52285;DHT22;38238;53.304;6.606;2022-07-03T14:21:32;19.80;99.90
52285;DHT22;38238;53.304;6.606;2022-07-03T14:23:58;19.90;99.90
52285;DHT22;38238;53.304;6.606;2022-07-03T14:26:24;19.80;99.90
52285;DHT22;38238;53.304;6.606;2022-07-03T14:29:08;19.60;99.90
52285;DHT22;38238;53.304;6.606;2022-07-03T14:31:53;19.50;99.90
52285;DHT22;38238;53.304;6.606;2022-07-03T14:34:38;19.20;99.90
52285;DHT22;38238;53.304;6.606;2022-07-03T14:37:04;18.90;99.90
52285;DHT22;38238;53.304;6.606;2022-07-03T14:39:30;18.70;99.90
52285;DHT22;38238;53.304;6.606;2022-07-03T14:41:56;18.50;99.90
52285;DHT22;38238;53.304;6.606;2022-07-03T14:44:21;18.40;99.90
52285;DHT22;38238;53.304;6.606;2022-07-03T14:46:53;18.30;99.90
52285;DHT22;38238;53.304;6.606;2022-07-03T14:49:19;18.20;99.90
52285;DHT22;38238;53.304;6.606;2022-07-03T14:51:48;18.20;99.90
52285;DHT22;38238;53.304;6.606;2022-07-03T14:54:18;18.10;99.90
52285;DHT22;38238;53.304;6.606;2022-07-03T14:56:51;18.30;99.90
52285;DHT22;38238;53.304;6.606;2022-07-03T14:59:23;18.30;99.90
52285;DHT22;38238;53.304;6.606;2022-07-03T15:01:56;18.30;99.90
52285;DHT22;38238;53.304;6.606;2022-07-03T15:07:25;18.30;99.90
52285;DHT22;38238;53.304;6.606;2022-07-03T15:10:03;18.40;99.90
52285;DHT22;38238;53.304;6.606;2022-07-03T15:12:31;18.40;99.90
52285;DHT22;38238;53.304;6.606;2022-07-03T15:14:58;18.40;99.90
52285;DHT22;38238;53.304;6.606;2022-07-03T15:17:25;18.50;99.90
52285;DHT22;38238;53.304;6.606;2022-07-03T15:19:51;18.40;99.90
52285;DHT22;38238;53.304;6.606;2022-07-03T15:22:20;18.50;99.90
52285;DHT22;38238;53.304;6.606;2022-07-03T15:24:50;18.50;99.90
52285;DHT22;38238;53.304;6.606;2022-07-03T15:27:22;18.60;99.90
52285;DHT22;38238;53.304;6.606;2022-07-03T15:29:48;18.70;99.90
52285;DHT22;38238;53.304;6.606;2022-07-03T15:32:16;18.80;99.90
52285;DHT22;38238;53.304;6.606;2022-07-03T15:34:42;18.80;99.90
52285;DHT22;38238;53.304;6.606;2022-07-03T15:39:54;19.00;99.90
52285;DHT22;38238;53.304;6.606;2022-07-03T15:45:30;19.10;99.90
52285;DHT22;38238;53.304;6.606;2022-07-03T15:48:15;19.10;99.90
52285;DHT22;38238;53.304;6.606;2022-07-03T15:53:39;19.20;99.90
52285;DHT22;38238;53.304;6.606;2022-07-03T15:56:07;19.00;99.90
52285;DHT22;38238;53.304;6.606;2022-07-03T15:58:34;19.00;99.90
52285;DHT22;38238;53.304;6.606;2022-07-03T16:01:06;18.90;99.90
52285;DHT22;38238;53.304;6.606;2022-07-03T16:04:17;19.00;99.90
52285;DHT22;38238;53.304;6.606;2022-07-03T16:06:42;18.90;99.90
52285;DHT22;38238;53.304;6.606;2022-07-03T16:09:08;19.00;99.90
52285;DHT22;38238;53.304;6.606;2022-07-03T16:11:35;19.00;99.90
52285;DHT22;38238;53.304;6.606;2022-07-03T16:14:03;18.90;99.90
52285;DHT22;38238;53.304;6.606;2022-07-03T16:16:31;18.90;99.90
52285;DHT22;38238;53.304;6.606;2022-07-03T16:19:00;19.00;99.90
52285;DHT22;38238;53.304;6.606;2022-07-03T16:21:29;19.00;99.90
52285;DHT22;38238;53.304;6.606;2022-07-03T16:23:55;19.00;99.90
52285;DHT22;38238;53.304;6.606;2022-07-03T16:26:22;19.00;99.90
52285;DHT22;38238;53.304;6.606;2022-07-03T16:28:48;18.90;99.90
52285;DHT22;38238;53.304;6.606;2022-07-03T16:31:16;18.80;99.90
52285;DHT22;38238;53.304;6.606;2022-07-03T16:33:51;18.80;99.90
52285;DHT22;38238;53.304;6.606;2022-07-03T16:36:26;18.90;99.90
52285;DHT22;38238;53.304;6.606;2022-07-03T16:38:57;18.90;99.90
52285;DHT22;38238;53.304;6.606;2022-07-03T16:41:26;19.00;99.90
52285;DHT22;38238;53.304;6.606;2022-07-03T16:43:57;19.00;99.90
52285;DHT22;38238;53.304;6.606;2022-07-03T16:46:26;19.00;99.90
52285;DHT22;38238;53.304;6.606;2022-07-03T16:48:54;18.90;99.90
52285;DHT22;38238;53.304;6.606;2022-07-03T16:51:23;18.80;99.90
52285;DHT22;38238;53.304;6.606;2022-07-03T16:54:02;18.80;99.90
52285;DHT22;38238;53.304;6.606;2022-07-03T16:56:28;18.70;99.90
52285;DHT22;38238;53.304;6.606;2022-07-03T16:58:55;18.60;99.90
52285;DHT22;38238;53.304;6.606;2022-07-03T17:01:21;18.50;99.90
52285;DHT22;38238;53.304;6.606;2022-07-03T17:03:47;18.40;99.90
52285;DHT22;38238;53.304;6.606;2022-07-03T17:06:14;18.30;99.90
52285;DHT22;38238;53.304;6.606;2022-07-03T17:08:40;18.30;99.90
52285;DHT22;38238;53.304;6.606;2022-07-03T17:11:06;18.20;99.90
52285;DHT22;38238;53.304;6.606;2022-07-03T17:13:33;18.10;99.90
52285;DHT22;38238;53.304;6.606;2022-07-03T17:16:02;18.20;99.90
52285;DHT22;38238;53.304;6.606;2022-07-03T17:18:40;18.30;99.90
52285;DHT22;38238;53.304;6.606;2022-07-03T17:21:07;18.30;99.90
52285;DHT22;38238;53.304;6.606;2022-07-03T17:23:35;18.30;99.90
52285;DHT22;38238;53.304;6.606;2022-07-03T17:26:05;18.30;99.90
52285;DHT22;38238;53.304;6.606;2022-07-03T17:28:59;18.30;99.90
52285;DHT22;38238;53.304;6.606;2022-07-03T17:31:26;18.20;99.90
52285;DHT22;38238;53.304;6.606;2022-07-03T17:33:58;18.20;99.90
52285;DHT22;38238;53.304;6.606;2022-07-03T17:36:26;18.30;99.90
52285;DHT22;38238;53.304;6.606;2022-07-03T17:38:54;18.30;99.90
52285;DHT22;38238;53.304;6.606;2022-07-03T17:41:27;18.30;99.90
52285;DHT22;38238;53.304;6.606;2022-07-03T17:43:54;18.40;99.90